Time;durP1;ratioP1;P1;durP2;ratioP2;P2;SDS_P1;SDS_P2;PMS_P1;PMS_P2;Temp;Humidity;BMP_temperature;BMP_pressure;BME280_temperature;BME280_humidity;BME280_pressure;Samples;Min_cycle;Max_cycle;Signal;HPM_P1;HPM_P2
2023/01/14 00:01:12;;;;;;;;;;;;;;;;;;5055065;28;19913;-76
2023/01/14 00:03:38;;;;;;;;;;;;;;;;;;5054939;28;19936;-76
2023/01/14 00:06:04;;;;;;;;;;;;;;;;;;5055339;28;19959;-75
2023/01/14 00:08:30;;;;;;;;;;;;;;;;;;5054846;28;20293;-77
2023/01/14 00:10:56;;;;;;;;;;;;;;;;;;5054780;28;19915;-77
2023/01/14 00:13:22;;;;;;;;;;;;;;;;;;5054892;28;20358;-76
2023/01/14 00:15:48;;;;;;;;;;;;;;;;;;5053998;28;19916;-76
2023/01/14 00:18:14;;;;;;;;;;;;;;;;;;5054634;28;20007;-77
2023/01/14 00:20:40;;;;;;;;;;;;;;;;;;5054771;28;20077;-76
2023/01/14 00:23:06;;;;;;;;;;;;;;;;;;5054557;28;19959;-76
2023/01/14 00:25:32;;;;;;;;;;;;;;;;;;5054663;28;19920;-76
2023/01/14 00:27:57;;;;;;;;;;;;;;;;;;5054490;28;19912;-76
2023/01/14 00:30:23;;;;;;;;;;;;;;;;;;5054443;28;20392;-76
2023/01/14 00:32:49;;;;;;;;;;;;;;;;;;5054621;28;19975;-77
2023/01/14 00:35:15;;;;;;;;;;;;;;;;;;5054175;28;19969;-78
2023/01/14 00:37:41;;;;;;;;;;;;;;;;;;5054524;28;20369;-77
2023/01/14 00:40:07;;;;;;;;;;;;;;;;;;5054172;28;19916;-76
2023/01/14 00:42:33;;;;;;;;;;;;;;;;;;5054178;28;19958;-76
2023/01/14 00:44:59;;;;;;;;;;;;;;;;;;5054194;28;20011;-76
2023/01/14 00:47:25;;;;;;;;;;;;;;;;;;5054198;28;19916;-76
2023/01/14 00:49:51;;;;;;;;;;;;;;;;;;5054171;28;19908;-75
2023/01/14 00:52:17;;;;;;;;;;;;;;;;;;5054072;28;19916;-77
2023/01/14 00:54:43;;;;;;;;;;;;;;;;;;5053974;28;19909;-76
2023/01/14 00:57:08;;;;;;;;;;;;;;;;;;5054139;28;20387;-76
2023/01/14 00:59:34;;;;;;;;;;;;;;;;;;5053891;28;19912;-76
2023/01/14 01:02:02;;;;;;;;;;;;;;;;;;5053957;28;19920;-76
2023/01/14 01:04:28;;;;;;;;;;;;;;;;;;5053906;28;19940;-76
2023/01/14 01:06:53;;;;;;;;;;;;;;;;;;5054211;28;20383;-76
2023/01/14 01:09:19;;;;;;;;;;;;;;;;;;5052491;28;19920;-76
2023/01/14 01:11:45;;;;;;;;;;;;;;;;;;5054032;28;19909;-76
2023/01/14 01:14:11;;;;;;;;;;;;;;;;;;5053725;28;20355;-75
2023/01/14 01:16:37;;;;;;;;;;;;;;;;;;5053693;28;19916;-77
2023/01/14 01:19:03;;;;;;;;;;;;;;;;;;5053795;28;19955;-76
2023/01/14 01:21:29;;;;;;;;;;;;;;;;;;5052063;28;19920;-77
2023/01/14 01:23:55;;;;;;;;;;;;;;;;;;5054112;28;19909;-76
2023/01/14 01:26:21;;;;;;;;;;;;;;;;;;5053535;28;19915;-76
2023/01/14 01:28:47;;;;;;;;;;;;;;;;;;5053712;28;19964;-76
2023/01/14 01:31:13;;;;;;;;;;;;;;;;;;5052284;28;19909;-77
2023/01/14 01:33:39;;;;;;;;;;;;;;;;;;5053543;28;19916;-75
2023/01/14 01:36:05;;;;;;;;;;;;;;;;;;5053390;28;19990;-76
2023/01/14 01:38:31;;;;;;;;;;;;;;;;;;5053479;28;20030;-76
2023/01/14 01:40:57;;;;;;;;;;;;;;;;;;5053332;28;19967;-76
2023/01/14 01:43:23;;;;;;;;;;;;;;;;;;5052189;28;19909;-76
2023/01/14 01:45:48;;;;;;;;;;;;;;;;;;5053457;28;19973;-75
2023/01/14 01:48:14;;;;;;;;;;;;;;;;;;5053621;28;20046;-76
2023/01/14 01:50:40;;;;;;;;;;;;;;;;;;5053391;28;19913;-77
2023/01/14 01:53:06;;;;;;;;;;;;;;;;;;5053262;28;19909;-77
2023/01/14 01:55:32;;;;;;;;;;;;;;;;;;5053382;28;19975;-77
2023/01/14 01:57:58;;;;;;;;;;;;;;;;;;5053315;28;19975;-76
2023/01/14 02:00:24;;;;;;;;;;;;;;;;;;5053601;28;20381;-76
2023/01/14 02:02:50;;;;;;;;;;;;;;;;;;5053272;28;19919;-76
2023/01/14 02:05:16;;;;;;;;;;;;;;;;;;5053360;28;20337;-75
2023/01/14 02:07:43;;;;;;;;;;;;;;;;;;5053193;28;20377;-76
2023/01/14 02:10:09;;;;;;;;;;;;;;;;;;5051871;28;19909;-77
2023/01/14 02:12:36;;;;;;;;;;;;;;;;;;5053176;28;19935;-75
2023/01/14 02:15:02;;;;;;;;;;;;;;;;;;5053387;28;20365;-77
2023/01/14 02:17:28;;;;;;;;;;;;;;;;;;5053080;28;19995;-76
2023/01/14 02:19:54;;;;;;;;;;;;;;;;;;5053048;28;19993;-76
2023/01/14 02:22:20;;;;;;;;;;;;;;;;;;5053445;28;19913;-76
2023/01/14 02:24:46;;;;;;;;;;;;;;;;;;5053305;28;20376;-76
2023/01/14 02:27:12;;;;;;;;;;;;;;;;;;5053013;28;19909;-76
2023/01/14 02:29:38;;;;;;;;;;;;;;;;;;5052990;28;20276;-75
2023/01/14 02:32:04;;;;;;;;;;;;;;;;;;5052984;28;20373;-76
2023/01/14 02:34:30;;;;;;;;;;;;;;;;;;5052774;28;20336;-76
2023/01/14 02:36:56;;;;;;;;;;;;;;;;;;5053352;28;20011;-76
2023/01/14 02:39:22;;;;;;;;;;;;;;;;;;5056177;28;20015;-77
2023/01/14 02:44:32;;;;;;;;;;;;;;;;;;5056185;28;19915;-77
2023/01/14 02:46:58;;;;;;;;;;;;;;;;;;5056590;28;19909;-77
2023/01/14 02:49:24;;;;;;;;;;;;;;;;;;5056380;28;19948;-76
2023/01/14 02:51:50;;;;;;;;;;;;;;;;;;5056447;28;19919;-76
2023/01/14 02:54:19;;;;;;;;;;;;;;;;;;5056228;28;19909;-77
2023/01/14 02:56:45;;;;;;;;;;;;;;;;;;5056268;28;19970;-77
2023/01/14 02:59:11;;;;;;;;;;;;;;;;;;5056232;28;20269;-76
2023/01/14 03:01:37;;;;;;;;;;;;;;;;;;5054775;28;19912;-77
2023/01/14 03:04:03;;;;;;;;;;;;;;;;;;5056129;28;19909;-76
2023/01/14 03:06:29;;;;;;;;;;;;;;;;;;5056105;28;19909;-76
2023/01/14 03:08:55;;;;;;;;;;;;;;;;;;5056175;28;20365;-77
2023/01/14 03:11:21;;;;;;;;;;;;;;;;;;5055958;28;19915;-76
2023/01/14 03:13:47;;;;;;;;;;;;;;;;;;5056057;28;19999;-76
2023/01/14 03:16:13;;;;;;;;;;;;;;;;;;5054523;28;19915;-75
2023/01/14 03:18:39;;;;;;;;;;;;;;;;;;5054528;28;19916;-75
2023/01/14 03:21:05;;;;;;;;;;;;;;;;;;5056147;28;20027;-76
2023/01/14 03:23:31;;;;;;;;;;;;;;;;;;5055757;28;20054;-75
2023/01/14 03:25:57;;;;;;;;;;;;;;;;;;5055722;28;19955;-76
2023/01/14 03:28:23;;;;;;;;;;;;;;;;;;5055627;28;19962;-75
2023/01/14 03:30:49;;;;;;;;;;;;;;;;;;5055638;28;19909;-75
2023/01/14 03:33:14;;;;;;;;;;;;;;;;;;5055713;28;19909;-76
2023/01/14 03:35:40;;;;;;;;;;;;;;;;;;5055320;28;19936;-75
2023/01/14 03:38:06;;;;;;;;;;;;;;;;;;5055527;28;19915;-76
2023/01/14 03:40:32;;;;;;;;;;;;;;;;;;5055299;28;19916;-76
2023/01/14 03:42:58;;;;;;;;;;;;;;;;;;5055400;28;19909;-76
2023/01/14 03:45:24;;;;;;;;;;;;;;;;;;5055917;28;20383;-75
2023/01/14 03:47:50;;;;;;;;;;;;;;;;;;5055259;28;20368;-76
2023/01/14 03:50:16;;;;;;;;;;;;;;;;;;5054349;28;19912;-76
2023/01/14 03:52:42;;;;;;;;;;;;;;;;;;5055077;28;20019;-75
2023/01/14 03:55:08;;;;;;;;;;;;;;;;;;5055365;28;20389;-76
2023/01/14 03:57:34;;;;;;;;;;;;;;;;;;5055104;28;19908;-76
2023/01/14 04:00:00;;;;;;;;;;;;;;;;;;5054989;28;19971;-75
2023/01/14 04:02:26;;;;;;;;;;;;;;;;;;5055399;28;19909;-76
2023/01/14 04:04:51;;;;;;;;;;;;;;;;;;5054936;28;19935;-77
2023/01/14 04:07:17;;;;;;;;;;;;;;;;;;5054894;28;19947;-76
2023/01/14 04:09:43;;;;;;;;;;;;;;;;;;5054914;28;19916;-77
2023/01/14 04:12:09;;;;;;;;;;;;;;;;;;5054793;28;19908;-77
2023/01/14 04:17:20;;;;;;;;;;;;;;;;;;5054435;28;19920;-77
2023/01/14 04:19:46;;;;;;;;;;;;;;;;;;5054662;28;19913;-77
2023/01/14 04:22:12;;;;;;;;;;;;;;;;;;5054605;28;19932;-75
2023/01/14 04:24:38;;;;;;;;;;;;;;;;;;5054579;28;19913;-76
2023/01/14 04:27:03;;;;;;;;;;;;;;;;;;5054693;28;19959;-77
2023/01/14 04:29:29;;;;;;;;;;;;;;;;;;5054470;28;19909;-77
2023/01/14 04:31:55;;;;;;;;;;;;;;;;;;5054487;28;19908;-75
2023/01/14 04:34:21;;;;;;;;;;;;;;;;;;5054322;28;20280;-76
2023/01/14 04:36:47;;;;;;;;;;;;;;;;;;5053970;28;20008;-76
2023/01/14 04:39:13;;;;;;;;;;;;;;;;;;5054589;28;19916;-77
2023/01/14 04:44:24;;;;;;;;;;;;;;;;;;5053999;28;19958;-76
2023/01/14 04:46:50;;;;;;;;;;;;;;;;;;5054200;28;19909;-76
2023/01/14 04:49:15;;;;;;;;;;;;;;;;;;5054391;28;20431;-76
2023/01/14 04:51:41;;;;;;;;;;;;;;;;;;5054120;28;19909;-76
2023/01/14 04:54:07;;;;;;;;;;;;;;;;;;5054034;28;20003;-76
2023/01/14 04:56:33;;;;;;;;;;;;;;;;;;5054009;28;19951;-76
2023/01/14 04:59:01;;;;;;;;;;;;;;;;;;5053988;28;20003;-76
2023/01/14 05:01:27;;;;;;;;;;;;;;;;;;5052323;28;19912;-76
2023/01/14 05:03:58;;;;;;;;;;;;;;;;;;5053998;28;20059;-76
2023/01/14 05:06:24;;;;;;;;;;;;;;;;;;5053888;28;19916;-76
2023/01/14 05:08:50;;;;;;;;;;;;;;;;;;5053818;28;19909;-76
2023/01/14 05:11:15;;;;;;;;;;;;;;;;;;5052642;28;20396;-74
2023/01/14 05:13:41;;;;;;;;;;;;;;;;;;5053926;28;20008;-76
2023/01/14 05:16:07;;;;;;;;;;;;;;;;;;5053724;28;19909;-75
2023/01/14 05:18:33;;;;;;;;;;;;;;;;;;5053884;28;19915;-75
2023/01/14 05:20:59;;;;;;;;;;;;;;;;;;5053647;28;19955;-76
2023/01/14 05:23:25;;;;;;;;;;;;;;;;;;5053824;28;20297;-75
2023/01/14 05:25:51;;;;;;;;;;;;;;;;;;5053696;28;19916;-75
2023/01/14 05:28:17;;;;;;;;;;;;;;;;;;5053582;28;20007;-76
2023/01/14 05:30:43;;;;;;;;;;;;;;;;;;5053570;28;20377;-76
2023/01/14 05:33:09;;;;;;;;;;;;;;;;;;5053719;28;19909;-75
2023/01/14 05:35:35;;;;;;;;;;;;;;;;;;5053306;28;20431;-76
2023/01/14 05:38:01;;;;;;;;;;;;;;;;;;5053502;28;19909;-77
2023/01/14 05:40:27;;;;;;;;;;;;;;;;;;5053733;28;20047;-76
2023/01/14 05:45:38;;;;;;;;;;;;;;;;;;5053197;28;19916;-76
2023/01/14 05:48:03;;;;;;;;;;;;;;;;;;5053404;28;19912;-77
2023/01/14 05:50:29;;;;;;;;;;;;;;;;;;5053499;28;19963;-76
2023/01/14 05:52:55;;;;;;;;;;;;;;;;;;5053307;28;19909;-75
2023/01/14 05:55:21;;;;;;;;;;;;;;;;;;5053417;28;19954;-76
2023/01/14 05:57:47;;;;;;;;;;;;;;;;;;5053318;28;19912;-76
2023/01/14 06:06:20;;;;;;;;;;;;;;;;;;5053225;28;20335;-76
2023/01/14 06:08:28;;;;;;;;;;;;;;;;;;5053163;28;19955;-76
2023/01/14 06:10:54;;;;;;;;;;;;;;;;;;5051926;28;19909;-76
2023/01/14 06:13:23;;;;;;;;;;;;;;;;;;5055071;28;19999;-76
2023/01/14 06:15:52;;;;;;;;;;;;;;;;;;5057052;28;19909;-76
2023/01/14 06:18:21;;;;;;;;;;;;;;;;;;5057348;28;19909;-76
2023/01/14 06:20:47;;;;;;;;;;;;;;;;;;5056837;28;19958;-76
2023/01/14 06:23:13;;;;;;;;;;;;;;;;;;5056917;28;19913;-76
2023/01/14 06:25:39;;;;;;;;;;;;;;;;;;5057078;28;19948;-76
2023/01/14 06:28:05;;;;;;;;;;;;;;;;;;5056991;28;19916;-77
2023/01/14 06:30:31;;;;;;;;;;;;;;;;;;5056804;28;19909;-76
2023/01/14 06:32:57;;;;;;;;;;;;;;;;;;5056923;28;20373;-76
2023/01/14 06:35:23;;;;;;;;;;;;;;;;;;5056450;28;19924;-76
2023/01/14 06:37:49;;;;;;;;;;;;;;;;;;5056635;28;19909;-77
2023/01/14 06:40:14;;;;;;;;;;;;;;;;;;5056518;28;19917;-76
2023/01/14 06:42:40;;;;;;;;;;;;;;;;;;5056730;28;19996;-75
2023/01/14 06:45:06;;;;;;;;;;;;;;;;;;5056464;28;19909;-77
2023/01/14 06:47:32;;;;;;;;;;;;;;;;;;5056453;28;19909;-76
2023/01/14 06:49:58;;;;;;;;;;;;;;;;;;5056402;28;19909;-76
2023/01/14 06:52:24;;;;;;;;;;;;;;;;;;5056675;28;19909;-77
2023/01/14 06:54:52;;;;;;;;;;;;;;;;;;5056310;28;19913;-76
2023/01/14 06:57:18;;;;;;;;;;;;;;;;;;5056401;28;19916;-76
2023/01/14 06:59:44;;;;;;;;;;;;;;;;;;5056140;28;19946;-76
2023/01/14 07:02:10;;;;;;;;;;;;;;;;;;5056244;28;20289;-76
2023/01/14 07:04:36;;;;;;;;;;;;;;;;;;5056106;28;19909;-76
2023/01/14 07:07:02;;;;;;;;;;;;;;;;;;5056081;28;19909;-76
2023/01/14 07:09:28;;;;;;;;;;;;;;;;;;5056156;28;19909;-76
2023/01/14 07:11:54;;;;;;;;;;;;;;;;;;5055969;28;19909;-77
2023/01/14 07:14:20;;;;;;;;;;;;;;;;;;5056168;28;20011;-76
2023/01/14 07:16:46;;;;;;;;;;;;;;;;;;5055889;28;20039;-77
2023/01/14 07:19:12;;;;;;;;;;;;;;;;;;5054612;28;20289;-75
2023/01/14 07:21:38;;;;;;;;;;;;;;;;;;5055948;28;20368;-76
2023/01/14 07:24:04;;;;;;;;;;;;;;;;;;5055537;28;19954;-76
2023/01/14 07:26:30;;;;;;;;;;;;;;;;;;5055715;28;19908;-76
2023/01/14 07:28:55;;;;;;;;;;;;;;;;;;5055907;28;19909;-77
2023/01/14 07:31:21;;;;;;;;;;;;;;;;;;5055727;28;19952;-77
2023/01/14 07:33:47;;;;;;;;;;;;;;;;;;5055552;28;19916;-76
2023/01/14 07:36:13;;;;;;;;;;;;;;;;;;5055400;28;19917;-77
2023/01/14 07:38:39;;;;;;;;;;;;;;;;;;5055549;28;19909;-76
2023/01/14 07:41:05;;;;;;;;;;;;;;;;;;5055600;28;20331;-77
2023/01/14 07:43:31;;;;;;;;;;;;;;;;;;5054149;28;20551;-76
2023/01/14 07:45:58;;;;;;;;;;;;;;;;;;5055382;28;19956;-76
2023/01/14 07:48:24;;;;;;;;;;;;;;;;;;5055276;28;20019;-77
2023/01/14 07:50:50;;;;;;;;;;;;;;;;;;5055425;28;19944;-77
2023/01/14 07:53:16;;;;;;;;;;;;;;;;;;5055150;28;20324;-77
2023/01/14 07:55:42;;;;;;;;;;;;;;;;;;5055190;28;19956;-77
2023/01/14 07:58:10;;;;;;;;;;;;;;;;;;5055262;28;19931;-76
2023/01/14 08:00:36;;;;;;;;;;;;;;;;;;5053722;28;20381;-76
2023/01/14 08:03:02;;;;;;;;;;;;;;;;;;5055032;28;19958;-76
2023/01/14 08:05:28;;;;;;;;;;;;;;;;;;5054942;28;19956;-75
2023/01/14 08:07:54;;;;;;;;;;;;;;;;;;5054948;28;19909;-76
2023/01/14 08:10:19;;;;;;;;;;;;;;;;;;5055077;28;19916;-76
2023/01/14 08:12:45;;;;;;;;;;;;;;;;;;5054864;28;19909;-76
2023/01/14 08:15:11;;;;;;;;;;;;;;;;;;5054810;28;20288;-77
2023/01/14 08:17:37;;;;;;;;;;;;;;;;;;5055147;28;20292;-77
2023/01/14 08:20:05;;;;;;;;;;;;;;;;;;5053380;28;20281;-76
2023/01/14 08:22:31;;;;;;;;;;;;;;;;;;5054654;28;19917;-76
2023/01/14 08:24:57;;;;;;;;;;;;;;;;;;5053319;28;19916;-76
2023/01/14 08:27:23;;;;;;;;;;;;;;;;;;5055034;28;20000;-76
2023/01/14 08:29:49;;;;;;;;;;;;;;;;;;5054676;28;19909;-76
2023/01/14 08:32:15;;;;;;;;;;;;;;;;;;5054479;28;19955;-76
2023/01/14 08:34:41;;;;;;;;;;;;;;;;;;5054214;28;19935;-76
2023/01/14 08:37:07;;;;;;;;;;;;;;;;;;5053718;28;19913;-76
2023/01/14 08:39:33;;;;;;;;;;;;;;;;;;5054265;28;19908;-75
2023/01/14 08:41:59;;;;;;;;;;;;;;;;;;5054240;28;19909;-75
2023/01/14 08:44:24;;;;;;;;;;;;;;;;;;5054121;28;20058;-76
2023/01/14 08:46:50;;;;;;;;;;;;;;;;;;5052917;28;19948;-75
2023/01/14 08:49:16;;;;;;;;;;;;;;;;;;5054446;28;19916;-76
2023/01/14 08:51:42;;;;;;;;;;;;;;;;;;5054119;28;19916;-76
2023/01/14 08:54:08;;;;;;;;;;;;;;;;;;5054080;28;19909;-76
2023/01/14 08:56:34;;;;;;;;;;;;;;;;;;5054160;28;19909;-74
2023/01/14 08:59:00;;;;;;;;;;;;;;;;;;5053986;28;19970;-76
2023/01/14 09:01:26;;;;;;;;;;;;;;;;;;5053906;28;20281;-75
2023/01/14 09:03:53;;;;;;;;;;;;;;;;;;5054184;28;19909;-74
2023/01/14 09:06:19;;;;;;;;;;;;;;;;;;5053894;28;19916;-75
2023/01/14 09:19:31;;;;;;;;;;;;;;;;;;5053658;28;19962;-76
2023/01/14 09:21:57;;;;;;;;;;;;;;;;;;5053739;28;20388;-76
2023/01/14 09:24:23;;;;;;;;;;;;;;;;;;5053671;28;20003;-78
2023/01/14 09:26:49;;;;;;;;;;;;;;;;;;5053570;28;19948;-77
2023/01/14 09:29:15;;;;;;;;;;;;;;;;;;5053590;28;19909;-77
2023/01/14 09:31:41;;;;;;;;;;;;;;;;;;5053836;28;19920;-77
2023/01/14 09:34:07;;;;;;;;;;;;;;;;;;5053533;28;19916;-77
2023/01/14 09:36:33;;;;;;;;;;;;;;;;;;5025478;28;19952;-76
2023/01/14 09:38:59;;;;;;;;;;;;;;;;;;5053689;28;19908;-75
2023/01/14 09:41:25;;;;;;;;;;;;;;;;;;5053761;28;19924;-76
2023/01/14 09:43:51;;;;;;;;;;;;;;;;;;5053933;28;19919;-76
2023/01/14 09:46:17;;;;;;;;;;;;;;;;;;5053080;28;19972;-77
2023/01/14 09:48:43;;;;;;;;;;;;;;;;;;5056073;28;19909;-76
2023/01/14 09:51:10;;;;;;;;;;;;;;;;;;5057379;28;19908;-77
2023/01/14 09:53:36;;;;;;;;;;;;;;;;;;5057874;28;19991;-76
2023/01/14 09:56:02;;;;;;;;;;;;;;;;;;5057228;28;20338;-75
2023/01/14 09:58:28;;;;;;;;;;;;;;;;;;5057557;28;20281;-76
2023/01/14 10:00:54;;;;;;;;;;;;;;;;;;5057681;28;19952;-78
2023/01/14 10:03:19;;;;;;;;;;;;;;;;;;5057280;28;20288;-76
2023/01/14 10:05:46;;;;;;;;;;;;;;;;;;5057169;28;19909;-76
2023/01/14 10:08:12;;;;;;;;;;;;;;;;;;5057369;28;19909;-75
2023/01/14 10:10:38;;;;;;;;;;;;;;;;;;5057452;28;19915;-76
2023/01/14 10:13:04;;;;;;;;;;;;;;;;;;5056905;28;19916;-77
2023/01/14 10:15:30;;;;;;;;;;;;;;;;;;5056543;28;20357;-76
2023/01/14 10:17:56;;;;;;;;;;;;;;;;;;5057249;28;19916;-77
2023/01/14 10:20:22;;;;;;;;;;;;;;;;;;5057141;28;19912;-77
2023/01/14 10:22:47;;;;;;;;;;;;;;;;;;5057314;28;19909;-75
2023/01/14 10:25:13;;;;;;;;;;;;;;;;;;5056795;28;19948;-76
2023/01/14 10:27:39;;;;;;;;;;;;;;;;;;5056843;28;19909;-76
2023/01/14 10:30:05;;;;;;;;;;;;;;;;;;5055938;28;19958;-76
2023/01/14 10:32:31;;;;;;;;;;;;;;;;;;5056883;28;19963;-75
2023/01/14 10:34:57;;;;;;;;;;;;;;;;;;5037912;28;19917;-76
2023/01/14 10:37:23;;;;;;;;;;;;;;;;;;5057130;28;20467;-74
2023/01/14 10:39:50;;;;;;;;;;;;;;;;;;5056872;28;19951;-75
2023/01/14 10:42:16;;;;;;;;;;;;;;;;;;5056973;28;20351;-74
2023/01/14 10:44:45;;;;;;;;;;;;;;;;;;5056777;28;19999;-76
2023/01/14 10:47:11;;;;;;;;;;;;;;;;;;5056815;28;19909;-77
2023/01/14 10:49:37;;;;;;;;;;;;;;;;;;5056507;28;20004;-75
2023/01/14 10:52:03;;;;;;;;;;;;;;;;;;5056870;28;19909;-75
2023/01/14 10:54:29;;;;;;;;;;;;;;;;;;5056668;28;20023;-77
2023/01/14 10:56:55;;;;;;;;;;;;;;;;;;5056209;28;19909;-77
2023/01/14 10:59:21;;;;;;;;;;;;;;;;;;5055618;28;19912;-77
2023/01/14 11:01:47;;;;;;;;;;;;;;;;;;5056272;28;19959;-77
2023/01/14 11:04:13;;;;;;;;;;;;;;;;;;5054534;28;19913;-76
2023/01/14 11:06:39;;;;;;;;;;;;;;;;;;5056094;28;19959;-75
2023/01/14 11:09:05;;;;;;;;;;;;;;;;;;5056079;28;19909;-76
2023/01/14 11:11:31;;;;;;;;;;;;;;;;;;5056030;28;19913;-75
2023/01/14 11:13:59;;;;;;;;;;;;;;;;;;5056005;28;19909;-77
2023/01/14 11:16:25;;;;;;;;;;;;;;;;;;5055874;28;20436;-76
2023/01/14 11:18:51;;;;;;;;;;;;;;;;;;5055904;28;19915;-76
2023/01/14 11:21:20;;;;;;;;;;;;;;;;;;5055852;28;19913;-77
2023/01/14 11:23:46;;;;;;;;;;;;;;;;;;5055811;28;19909;-76
2023/01/14 11:26:12;;;;;;;;;;;;;;;;;;5055944;28;19909;-75
2023/01/14 11:28:38;;;;;;;;;;;;;;;;;;5055640;28;19916;-76
2023/01/14 11:31:04;;;;;;;;;;;;;;;;;;5055837;28;20004;-75
2023/01/14 11:33:32;;;;;;;;;;;;;;;;;;5065175;28;19970;-75
2023/01/14 11:35:58;;;;;;;;;;;;;;;;;;5075364;28;19993;-76
2023/01/14 11:38:26;;;;;;;;;;;;;;;;;;5075958;28;20419;-75
2023/01/14 11:43:37;;;;;;;;;;;;;;;;;;5074643;28;20396;-74
2023/01/14 11:46:02;;;;;;;;;;;;;;;;;;5075411;28;19943;-76
2023/01/14 11:48:28;;;;;;;;;;;;;;;;;;5074037;28;20412;-75
2023/01/14 11:50:54;;;;;;;;;;;;;;;;;;5074417;28;19962;-76
2023/01/14 11:53:26;;;;;;;;;;;;;;;;;;5073871;28;19917;-76
2023/01/14 11:55:52;;;;;;;;;;;;;;;;;;5074289;28;19915;-75
2023/01/14 11:58:18;;;;;;;;;;;;;;;;;;5074339;28;20317;-77
2023/01/14 12:00:44;;;;;;;;;;;;;;;;;;5074804;28;20016;-76
2023/01/14 12:03:09;;;;;;;;;;;;;;;;;;5073173;28;19958;-76
2023/01/14 12:05:35;;;;;;;;;;;;;;;;;;5073412;28;20007;-75
2023/01/14 12:08:05;;;;;;;;;;;;;;;;;;5073485;28;19978;-76
2023/01/14 12:10:31;;;;;;;;;;;;;;;;;;5073375;28;19913;-75
2023/01/14 12:18:26;;;;;;;;;;;;;;;;;;5074440;28;19915;-75
2023/01/14 12:20:52;;;;;;;;;;;;;;;;;;5074830;28;20296;-76
2023/01/14 12:23:18;;;;;;;;;;;;;;;;;;5074659;28;19946;-76
2023/01/14 12:25:44;;;;;;;;;;;;;;;;;;5074636;28;19931;-76
2023/01/14 12:28:10;;;;;;;;;;;;;;;;;;5074566;28;19912;-75
2023/01/14 12:30:36;;;;;;;;;;;;;;;;;;5074907;28;19954;-76
2023/01/14 12:33:02;;;;;;;;;;;;;;;;;;5074449;28;19908;-75
2023/01/14 12:35:28;;;;;;;;;;;;;;;;;;5074224;28;19962;-75
2023/01/14 12:37:54;;;;;;;;;;;;;;;;;;5074385;28;19962;-77
2023/01/14 12:45:49;;;;;;;;;;;;;;;;;;5074079;28;19932;-74
2023/01/14 12:48:15;;;;;;;;;;;;;;;;;;5074189;28;20368;-75
2023/01/14 12:50:41;;;;;;;;;;;;;;;;;;5074185;28;19913;-76
2023/01/14 12:53:07;;;;;;;;;;;;;;;;;;5074032;28;19908;-76
2023/01/14 12:55:33;;;;;;;;;;;;;;;;;;5074339;28;19908;-75
2023/01/14 12:57:59;;;;;;;;;;;;;;;;;;5073972;28;19931;-76
2023/01/14 13:00:26;;;;;;;;;;;;;;;;;;5073959;28;20369;-74
2023/01/14 13:02:53;;;;;;;;;;;;;;;;;;5073944;28;19931;-75
2023/01/14 13:05:19;;;;;;;;;;;;;;;;;;5072689;28;20295;-75
2023/01/14 13:07:45;;;;;;;;;;;;;;;;;;5074234;28;19909;-74
2023/01/14 13:10:11;;;;;;;;;;;;;;;;;;5074152;28;20004;-75
2023/01/14 13:12:36;;;;;;;;;;;;;;;;;;5074020;28;20258;-75
2023/01/14 13:15:03;;;;;;;;;;;;;;;;;;5073835;28;20365;-74
2023/01/14 13:17:32;;;;;;;;;;;;;;;;;;5073805;28;19936;-76
2023/01/14 13:19:57;;;;;;;;;;;;;;;;;;5072410;28;19958;-75
2023/01/14 13:22:23;;;;;;;;;;;;;;;;;;5073700;28;20292;-75
2023/01/14 13:24:49;;;;;;;;;;;;;;;;;;5073773;28;20360;-74
2023/01/14 13:27:15;;;;;;;;;;;;;;;;;;5074085;28;19991;-76
2023/01/14 13:29:41;;;;;;;;;;;;;;;;;;5073982;28;19958;-75
2023/01/14 13:32:07;;;;;;;;;;;;;;;;;;5073577;28;19909;-76
2023/01/14 13:34:33;;;;;;;;;;;;;;;;;;5073438;28;19909;-76
2023/01/14 13:36:59;;;;;;;;;;;;;;;;;;5073845;28;19908;-75
2023/01/14 13:39:25;;;;;;;;;;;;;;;;;;5073590;28;19916;-76
2023/01/14 13:41:51;;;;;;;;;;;;;;;;;;5073567;28;19920;-76
2023/01/14 13:44:17;;;;;;;;;;;;;;;;;;5073587;28;19966;-75
2023/01/14 13:46:43;;;;;;;;;;;;;;;;;;5073522;28;20003;-75
2023/01/14 13:49:09;;;;;;;;;;;;;;;;;;5073507;28;19940;-76
2023/01/14 13:51:38;;;;;;;;;;;;;;;;;;5073667;28;19908;-75
2023/01/14 13:54:03;;;;;;;;;;;;;;;;;;5072116;28;19954;-76
2023/01/14 13:56:29;;;;;;;;;;;;;;;;;;5073422;28;20276;-76
2023/01/14 13:58:55;;;;;;;;;;;;;;;;;;5072126;28;20288;-75
2023/01/14 14:01:26;;;;;;;;;;;;;;;;;;5073310;28;19913;-74
2023/01/14 14:03:52;;;;;;;;;;;;;;;;;;5073761;28;19908;-76
2023/01/14 14:06:18;;;;;;;;;;;;;;;;;;5073582;28;20034;-76
2023/01/14 14:08:44;;;;;;;;;;;;;;;;;;5073321;28;19931;-75
2023/01/14 14:11:10;;;;;;;;;;;;;;;;;;5073283;28;20322;-76
2023/01/14 14:16:20;;;;;;;;;;;;;;;;;;5072963;28;19916;-76
2023/01/14 14:18:46;;;;;;;;;;;;;;;;;;5073161;28;19908;-75
2023/01/14 14:21:12;;;;;;;;;;;;;;;;;;5073241;28;20007;-75
2023/01/14 14:23:38;;;;;;;;;;;;;;;;;;5073126;28;19915;-75
2023/01/14 14:26:04;;;;;;;;;;;;;;;;;;5073352;28;19992;-76
2023/01/14 14:28:30;;;;;;;;;;;;;;;;;;5073079;28;19948;-76
2023/01/14 14:30:56;;;;;;;;;;;;;;;;;;5073290;28;20331;-77
2023/01/14 14:33:22;;;;;;;;;;;;;;;;;;5073269;28;19909;-76
2023/01/14 14:35:48;;;;;;;;;;;;;;;;;;5076769;28;20288;-77
2023/01/14 14:38:14;;;;;;;;;;;;;;;;;;5076663;28;20432;-77
2023/01/14 14:40:40;;;;;;;;;;;;;;;;;;5076745;28;19971;-77
2023/01/14 14:43:06;;;;;;;;;;;;;;;;;;5076717;28;19908;-77
2023/01/14 14:45:32;;;;;;;;;;;;;;;;;;5076515;28;19915;-75
2023/01/14 14:47:58;;;;;;;;;;;;;;;;;;5076951;28;19909;-76
2023/01/14 14:50:24;;;;;;;;;;;;;;;;;;5076760;28;19909;-76
2023/01/14 14:52:50;;;;;;;;;;;;;;;;;;5076360;28;20046;-77
2023/01/14 14:55:18;;;;;;;;;;;;;;;;;;5076969;28;20277;-76
2023/01/14 14:57:44;;;;;;;;;;;;;;;;;;5076344;28;19916;-76
2023/01/14 15:00:10;;;;;;;;;;;;;;;;;;5076235;28;19912;-77
2023/01/14 15:02:35;;;;;;;;;;;;;;;;;;5076389;28;19908;-75
2023/01/14 15:05:01;;;;;;;;;;;;;;;;;;5076177;28;19908;-76
2023/01/14 15:07:27;;;;;;;;;;;;;;;;;;5076158;28;19931;-76
2023/01/14 15:09:53;;;;;;;;;;;;;;;;;;5076106;28;20360;-76
2023/01/14 15:12:19;;;;;;;;;;;;;;;;;;5076060;28;19998;-77
2023/01/14 15:14:45;;;;;;;;;;;;;;;;;;5076149;28;19999;-75
2023/01/14 15:17:11;;;;;;;;;;;;;;;;;;5075972;28;19919;-76
2023/01/14 15:19:37;;;;;;;;;;;;;;;;;;5075954;28;19916;-76
2023/01/14 15:22:03;;;;;;;;;;;;;;;;;;5075765;28;20280;-76
2023/01/14 15:24:29;;;;;;;;;;;;;;;;;;5075871;28;20380;-76
2023/01/14 15:26:55;;;;;;;;;;;;;;;;;;5075999;28;19909;-76
2023/01/14 15:29:21;;;;;;;;;;;;;;;;;;5075930;28;19999;-76
2023/01/14 15:31:47;;;;;;;;;;;;;;;;;;5074147;28;19993;-77
2023/01/14 15:34:13;;;;;;;;;;;;;;;;;;5075599;28;19909;-75
2023/01/14 15:36:39;;;;;;;;;;;;;;;;;;5075198;28;19917;-74
2023/01/14 15:39:05;;;;;;;;;;;;;;;;;;5074329;28;19914;-77
2023/01/14 15:41:31;;;;;;;;;;;;;;;;;;5075495;28;19921;-76
2023/01/14 15:43:56;;;;;;;;;;;;;;;;;;5075480;28;19974;-76
2023/01/14 15:46:25;;;;;;;;;;;;;;;;;;5075354;28;20288;-76
2023/01/14 15:48:51;;;;;;;;;;;;;;;;;;5075789;28;19912;-76
2023/01/14 15:51:17;;;;;;;;;;;;;;;;;;5075293;28;19915;-76
2023/01/14 15:53:43;;;;;;;;;;;;;;;;;;5075219;28;19948;-75
2023/01/14 15:56:10;;;;;;;;;;;;;;;;;;5075257;28;20280;-77
2023/01/14 15:58:36;;;;;;;;;;;;;;;;;;5075152;28;19953;-76
2023/01/14 16:01:01;;;;;;;;;;;;;;;;;;5075483;28;20323;-76
2023/01/14 16:03:27;;;;;;;;;;;;;;;;;;5075358;28;19930;-76
2023/01/14 16:05:53;;;;;;;;;;;;;;;;;;5075050;28;19956;-77
2023/01/14 16:08:19;;;;;;;;;;;;;;;;;;5075009;28;19933;-77
2023/01/14 16:10:45;;;;;;;;;;;;;;;;;;5074900;28;19909;-76
2023/01/14 16:13:11;;;;;;;;;;;;;;;;;;5075023;28;19913;-76
2023/01/14 16:15:37;;;;;;;;;;;;;;;;;;5074929;28;19914;-76
2023/01/14 16:18:03;;;;;;;;;;;;;;;;;;5074780;28;19913;-77
2023/01/14 16:20:29;;;;;;;;;;;;;;;;;;5074655;28;19935;-76
2023/01/14 16:22:55;;;;;;;;;;;;;;;;;;5074751;28;20289;-77
2023/01/14 16:25:22;;;;;;;;;;;;;;;;;;5074826;28;19913;-75
2023/01/14 16:27:48;;;;;;;;;;;;;;;;;;5074594;28;19908;-76
2023/01/14 16:30:15;;;;;;;;;;;;;;;;;;5074586;28;19958;-77
2023/01/14 16:32:41;;;;;;;;;;;;;;;;;;5074470;28;19962;-78
2023/01/14 16:35:07;;;;;;;;;;;;;;;;;;5074332;28;20002;-75
2023/01/14 16:37:33;;;;;;;;;;;;;;;;;;5074423;28;20046;-75
2023/01/14 16:39:59;;;;;;;;;;;;;;;;;;5074259;28;19908;-76
2023/01/14 16:42:27;;;;;;;;;;;;;;;;;;5073512;28;20206;-75
2023/01/14 16:44:53;;;;;;;;;;;;;;;;;;5074462;28;19947;-75
2023/01/14 16:47:19;;;;;;;;;;;;;;;;;;5074212;28;19916;-77
2023/01/14 16:49:45;;;;;;;;;;;;;;;;;;5074148;28;19908;-78
2023/01/14 16:52:11;;;;;;;;;;;;;;;;;;5074634;28;20334;-76
2023/01/14 16:54:38;;;;;;;;;;;;;;;;;;5074057;28;20334;-76
2023/01/14 16:57:03;;;;;;;;;;;;;;;;;;5073831;28;20288;-76
2023/01/14 16:59:29;;;;;;;;;;;;;;;;;;5074115;28;19908;-76
2023/01/14 17:01:55;;;;;;;;;;;;;;;;;;5073896;28;19919;-76
2023/01/14 17:04:22;;;;;;;;;;;;;;;;;;5074448;28;19932;-76
2023/01/14 17:06:48;;;;;;;;;;;;;;;;;;5072667;28;20277;-76
2023/01/14 17:09:14;;;;;;;;;;;;;;;;;;5073941;28;19916;-75
2023/01/14 17:14:24;;;;;;;;;;;;;;;;;;5073573;28;19931;-76
2023/01/14 17:16:50;;;;;;;;;;;;;;;;;;5072531;28;20362;-76
2023/01/14 17:19:17;;;;;;;;;;;;;;;;;;5073780;28;19915;-76
2023/01/14 17:21:42;;;;;;;;;;;;;;;;;;5073968;28;20015;-76
2023/01/14 17:24:09;;;;;;;;;;;;;;;;;;5073732;28;19963;-77